Time;durP1;ratioP1;P1;durP2;ratioP2;P2;SDS_P1;SDS_P2;PMS_P1;PMS_P2;Temp;Humidity;BMP_temperature;BMP_pressure;BME280_temperature;BME280_humidity;BME280_pressure;Samples;Min_cycle;Max_cycle;Signal;HPM_P1;HPM_P2
2023/06/29 00:00:40;;;;;;;6.00;3.00;;;;;;;;;;5025985;28;20081;-70
2023/06/29 00:03:07;;;;;;;3.22;2.63;;;;;;;;;;5035285;28;20053;-71
2023/06/29 00:05:32;;;;;;;5.15;2.90;;;;;;;;;;5034805;28;20485;-71
2023/06/29 00:07:59;;;;;;;4.45;2.85;;;;;;;;;;5021713;28;20045;-71
2023/06/29 00:10:25;;;;;;;4.65;2.90;;;;;;;;;;5028861;28;20045;-71
2023/06/29 00:12:51;;;;;;;3.92;2.97;;;;;;;;;;5025010;28;20049;-71
2023/06/29 00:15:16;;;;;;;3.30;3.00;;;;;;;;;;5020004;28;20060;-70
2023/06/29 00:17:44;;;;;;;5.70;3.00;;;;;;;;;;5025163;28;20128;-70
2023/06/29 00:20:12;;;;;;;3.13;2.83;;;;;;;;;;5022304;28;20434;-70
2023/06/29 00:22:39;;;;;;;3.78;3.40;;;;;;;;;;5019350;28;20076;-71
2023/06/29 00:25:09;;;;;;;4.47;3.20;;;;;;;;;;5019935;28;20136;-70
2023/06/29 00:27:35;;;;;;;3.88;3.47;;;;;;;;;;5020015;28;20564;-70
2023/06/29 00:30:00;;;;;;;5.22;3.55;;;;;;;;;;5020061;28;20054;-70
2023/06/29 00:32:25;;;;;;;3.42;3.13;;;;;;;;;;5025625;28;20139;-70
2023/06/29 00:34:51;;;;;;;3.55;2.80;;;;;;;;;;5026603;28;20498;-70
2023/06/29 00:37:16;;;;;;;3.47;2.95;;;;;;;;;;5033445;28;20506;-70
2023/06/29 00:39:42;;;;;;;4.05;2.78;;;;;;;;;;5022171;28;20053;-71
2023/06/29 00:42:08;;;;;;;3.22;3.03;;;;;;;;;;5030925;28;20057;-70
2023/06/29 00:44:33;;;;;;;3.85;3.05;;;;;;;;;;5025713;28;20042;-71
2023/06/29 00:46:59;;;;;;;3.35;3.00;;;;;;;;;;5017783;28;20057;-70
2023/06/29 00:49:25;;;;;;;4.10;2.83;;;;;;;;;;5034847;28;20041;-70
2023/06/29 00:51:52;;;;;;;5.68;3.10;;;;;;;;;;5034346;28;20053;-70
2023/06/29 00:54:18;;;;;;;3.20;2.70;;;;;;;;;;5024398;28;20169;-70
2023/06/29 00:56:45;;;;;;;5.05;2.80;;;;;;;;;;5024730;28;20498;-70
2023/06/29 00:59:13;;;;;;;3.17;2.58;;;;;;;;;;5030426;28;20055;-69
2023/06/29 01:01:40;;;;;;;3.72;2.78;;;;;;;;;;5023607;28;20970;-69
2023/06/29 01:04:06;;;;;;;5.00;2.75;;;;;;;;;;5023427;28;20076;-70
2023/06/29 01:06:40;;;;;;;3.20;2.80;;;;;;;;;;5026701;28;20463;-72
2023/06/29 01:09:08;;;;;;;4.18;2.63;;;;;;;;;;5020731;28;20049;-72
2023/06/29 01:11:37;;;;;;;2.83;2.63;;;;;;;;;;5027228;28;20049;-71
2023/06/29 01:14:10;;;;;;;3.65;2.80;;;;;;;;;;5027903;28;20506;-71
2023/06/29 01:16:36;;;;;;;3.30;2.70;;;;;;;;;;5024407;28;20046;-69
2023/06/29 01:19:09;;;;;;;3.55;2.70;;;;;;;;;;5014722;28;20068;-69
2023/06/29 01:21:39;;;;;;;5.20;3.13;;;;;;;;;;5027455;28;20158;-69
2023/06/29 01:24:05;;;;;;;4.75;2.90;;;;;;;;;;5029405;28;20053;-69
2023/06/29 01:26:31;;;;;;;3.30;2.60;;;;;;;;;;5034206;28;20045;-71
2023/06/29 01:28:58;;;;;;;3.83;3.20;;;;;;;;;;5024349;28;22979;-71
2023/06/29 01:31:26;;;;;;;3.63;2.47;;;;;;;;;;5030297;28;20068;-71
2023/06/29 01:33:54;;;;;;;6.90;3.20;;;;;;;;;;5028493;28;20438;-70
2023/06/29 01:36:37;;;;;;;3.20;2.80;;;;;;;;;;5022935;28;20063;-69
2023/06/29 01:39:16;;;;;;;4.22;2.78;;;;;;;;;;5021059;28;20049;-70
2023/06/29 01:41:43;;;;;;;3.22;2.90;;;;;;;;;;5036604;28;20052;-72
2023/06/29 01:44:14;;;;;;;3.42;2.92;;;;;;;;;;5030671;28;20045;-71
2023/06/29 01:46:39;;;;;;;3.90;2.88;;;;;;;;;;5019379;28;20041;-69
2023/06/29 01:49:05;;;;;;;3.92;2.92;;;;;;;;;;5022558;28;20046;-72
2023/06/29 01:51:31;;;;;;;3.35;2.70;;;;;;;;;;5024294;28;20052;-70
2023/06/29 01:53:56;;;;;;;3.25;2.90;;;;;;;;;;5027700;28;20450;-70
2023/06/29 01:56:23;;;;;;;4.20;3.15;;;;;;;;;;5036964;28;20532;-71
2023/06/29 01:58:48;;;;;;;3.90;2.88;;;;;;;;;;5037007;28;20045;-72
2023/06/29 02:01:14;;;;;;;5.00;3.05;;;;;;;;;;5036659;28;20041;-69
2023/06/29 02:03:39;;;;;;;4.72;3.45;;;;;;;;;;5027962;28;20034;-70
2023/06/29 02:06:06;;;;;;;7.85;3.17;;;;;;;;;;5022451;28;20068;-69
2023/06/29 02:08:32;;;;;;;3.53;2.88;;;;;;;;;;5030451;28;20932;-71
2023/06/29 02:10:59;;;;;;;4.25;3.17;;;;;;;;;;5036464;28;20418;-71
2023/06/29 02:13:24;;;;;;;5.78;3.20;;;;;;;;;;5023576;28;21130;-70
2023/06/29 02:15:50;;;;;;;3.53;3.22;;;;;;;;;;5026861;28;21027;-70
2023/06/29 02:18:15;;;;;;;4.03;3.13;;;;;;;;;;5026420;28;20056;-72
2023/06/29 02:20:41;;;;;;;3.85;3.10;;;;;;;;;;5036717;28;20037;-72
2023/06/29 02:23:06;;;;;;;5.97;2.97;;;;;;;;;;5036819;28;20061;-70
2023/06/29 02:25:32;;;;;;;5.53;3.30;;;;;;;;;;5021277;28;20048;-72
2023/06/29 02:27:57;;;;;;;5.10;3.40;;;;;;;;;;5036466;28;20041;-70
2023/06/29 02:30:23;;;;;;;4.38;3.80;;;;;;;;;;5021632;28;20096;-71
2023/06/29 02:32:49;;;;;;;4.05;3.58;;;;;;;;;;5020427;28;20071;-70
2023/06/29 02:35:14;;;;;;;5.85;4.20;;;;;;;;;;5020964;28;20057;-71
2023/06/29 02:37:41;;;;;;;4.55;4.13;;;;;;;;;;5020206;28;20045;-71
2023/06/29 02:40:07;;;;;;;8.52;4.20;;;;;;;;;;5036861;28;20041;-73
2023/06/29 02:42:33;;;;;;;5.70;3.58;;;;;;;;;;5031775;28;20398;-70
2023/06/29 02:44:58;;;;;;;4.78;3.63;;;;;;;;;;5020893;28;20560;-72
2023/06/29 02:47:24;;;;;;;5.35;3.30;;;;;;;;;;5027376;28;20056;-70
2023/06/29 02:49:49;;;;;;;4.43;3.80;;;;;;;;;;5036562;28;20037;-72
2023/06/29 02:52:17;;;;;;;4.00;3.60;;;;;;;;;;5036125;28;20072;-70
2023/06/29 02:54:42;;;;;;;8.05;4.20;;;;;;;;;;5035290;28;20136;-72
2023/06/29 02:57:08;;;;;;;4.63;4.05;;;;;;;;;;5020810;28;20056;-70
2023/06/29 02:59:34;;;;;;;9.68;4.25;;;;;;;;;;5027819;28;20490;-71
2023/06/29 03:02:00;;;;;;;5.47;4.22;;;;;;;;;;5026139;28;20034;-70
2023/06/29 03:04:25;;;;;;;6.00;4.07;;;;;;;;;;5021625;28;20041;-71
2023/06/29 03:06:53;;;;;;;5.80;3.95;;;;;;;;;;5021539;28;20045;-69
2023/06/29 03:09:19;;;;;;;5.18;4.35;;;;;;;;;;5034990;28;20075;-71
2023/06/29 03:11:44;;;;;;;5.60;3.78;;;;;;;;;;5029511;28;20139;-70
2023/06/29 03:14:09;;;;;;;3.70;3.20;;;;;;;;;;5021033;28;20063;-71
2023/06/29 03:16:35;;;;;;;3.10;2.80;;;;;;;;;;5037447;28;20052;-73
2023/06/29 03:19:00;;;;;;;3.92;2.90;;;;;;;;;;5025333;28;20048;-70
2023/06/29 03:21:26;;;;;;;3.72;2.90;;;;;;;;;;5019809;28;20042;-70
2023/06/29 03:23:51;;;;;;;4.00;2.75;;;;;;;;;;5021032;28;20124;-69
2023/06/29 03:26:17;;;;;;;3.92;2.72;;;;;;;;;;5019766;28;21185;-69
2023/06/29 03:28:42;;;;;;;4.85;2.50;;;;;;;;;;5023051;28;20088;-72
2023/06/29 03:31:08;;;;;;;2.75;1.90;;;;;;;;;;5030923;28;20053;-70
2023/06/29 03:33:33;;;;;;;3.63;2.15;;;;;;;;;;5020386;28;20045;-70
2023/06/29 03:35:59;;;;;;;2.78;2.28;;;;;;;;;;5020942;28;20049;-70
2023/06/29 03:38:24;;;;;;;2.58;2.38;;;;;;;;;;5020360;28;20140;-70
2023/06/29 03:40:50;;;;;;;3.03;2.33;;;;;;;;;;5025466;28;20061;-70
2023/06/29 03:43:15;;;;;;;2.67;2.00;;;;;;;;;;5019520;28;20072;-69
2023/06/29 03:45:40;;;;;;;2.40;2.15;;;;;;;;;;5034472;28;20050;-70
2023/06/29 03:48:06;;;;;;;2.65;2.25;;;;;;;;;;5023172;28;20061;-71
2023/06/29 03:50:31;;;;;;;2.50;2.13;;;;;;;;;;5030793;28;20075;-71
2023/06/29 03:52:57;;;;;;;3.67;1.88;;;;;;;;;;5023991;28;20049;-71
2023/06/29 03:55:24;;;;;;;2.13;2.03;;;;;;;;;;5026559;28;20529;-72
2023/06/29 03:57:50;;;;;;;2.83;2.30;;;;;;;;;;5024779;28;20045;-69
2023/06/29 04:00:16;;;;;;;3.78;2.58;;;;;;;;;;5024649;28;20932;-70
2023/06/29 04:02:41;;;;;;;2.60;2.40;;;;;;;;;;5020042;28;20041;-71
2023/06/29 04:05:08;;;;;;;2.85;2.42;;;;;;;;;;5022083;28;20049;-72
2023/06/29 04:07:33;;;;;;;3.20;2.35;;;;;;;;;;5025176;28;20049;-71
2023/06/29 04:09:59;;;;;;;2.38;2.17;;;;;;;;;;5027236;28;20040;-71
2023/06/29 04:12:25;;;;;;;4.75;2.50;;;;;;;;;;5024932;28;20045;-71
2023/06/29 04:14:50;;;;;;;2.60;2.15;;;;;;;;;;5027489;28;20414;-74
2023/06/29 04:17:15;;;;;;;2.83;2.50;;;;;;;;;;5026752;28;20057;-73
2023/06/29 04:19:41;;;;;;;3.83;2.70;;;;;;;;;;5031799;28;20045;-71
2023/06/29 04:22:06;;;;;;;3.17;2.67;;;;;;;;;;5028268;28;20049;-72
2023/06/29 04:24:32;;;;;;;3.45;2.70;;;;;;;;;;5030440;28;20037;-73
2023/06/29 04:26:57;;;;;;;3.55;2.33;;;;;;;;;;5026531;28;20049;-71
2023/06/29 04:29:23;;;;;;;2.72;2.25;;;;;;;;;;5031861;28;20037;-72
2023/06/29 04:31:49;;;;;;;2.53;2.33;;;;;;;;;;5029843;28;20452;-71
2023/06/29 04:34:17;;;;;;;2.97;2.50;;;;;;;;;;5030843;28;20047;-73
2023/06/29 04:36:45;;;;;;;3.47;2.78;;;;;;;;;;5014461;28;20144;-71
2023/06/29 04:39:13;;;;;;;4.32;2.50;;;;;;;;;;5026121;28;20049;-72
2023/06/29 04:41:40;;;;;;;2.88;2.35;;;;;;;;;;5024444;28;20049;-72
2023/06/29 04:44:08;;;;;;;2.65;2.30;;;;;;;;;;5005311;28;20076;-72
2023/06/29 04:46:37;;;;;;;3.33;2.70;;;;;;;;;;5027046;28;20045;-71
2023/06/29 04:49:05;;;;;;;4.63;2.13;;;;;;;;;;5026170;28;20049;-72
2023/06/29 04:51:30;;;;;;;2.25;1.98;;;;;;;;;;5023051;28;20037;-72
2023/06/29 04:53:56;;;;;;;4.50;2.35;;;;;;;;;;5031768;28;20805;-71
2023/06/29 04:56:21;;;;;;;5.78;2.17;;;;;;;;;;5027454;28;20103;-72
2023/06/29 04:58:47;;;;;;;2.33;2.13;;;;;;;;;;5029618;28;20041;-72
2023/06/29 05:01:12;;;;;;;2.55;2.13;;;;;;;;;;5031495;28;20372;-72
2023/06/29 05:03:38;;;;;;;2.30;2.10;;;;;;;;;;5023432;28;20500;-72
2023/06/29 05:06:03;;;;;;;2.15;1.73;;;;;;;;;;5022579;28;20140;-72
2023/06/29 05:08:29;;;;;;;4.28;2.50;;;;;;;;;;5022765;28;20322;-72
2023/06/29 05:10:54;;;;;;;2.35;2.00;;;;;;;;;;5020426;28;20147;-73
2023/06/29 05:13:20;;;;;;;2.45;1.80;;;;;;;;;;5022834;28;20045;-73
2023/06/29 05:15:47;;;;;;;3.05;2.00;;;;;;;;;;5023280;28;20048;-73
2023/06/29 05:18:14;;;;;;;2.42;1.75;;;;;;;;;;5022803;28;20053;-73
2023/06/29 05:20:40;;;;;;;2.00;1.80;;;;;;;;;;5021380;28;20049;-74
2023/06/29 05:23:05;;;;;;;3.50;1.90;;;;;;;;;;5023132;28;20048;-73
2023/06/29 05:25:31;;;;;;;2.10;1.85;;;;;;;;;;5022847;28;20053;-73
2023/06/29 05:27:56;;;;;;;2.17;1.65;;;;;;;;;;5022824;28;20045;-73
2023/06/29 05:30:23;;;;;;;2.72;1.67;;;;;;;;;;5037860;28;20088;-73
2023/06/29 05:32:48;;;;;;;3.92;1.85;;;;;;;;;;5022947;28;20095;-74
2023/06/29 05:35:14;;;;;;;2.40;1.88;;;;;;;;;;5028909;28;20057;-73
2023/06/29 05:37:40;;;;;;;2.55;1.90;;;;;;;;;;5022051;28;20072;-71
2023/06/29 05:40:06;;;;;;;1.58;1.45;;;;;;;;;;5023038;28;20045;-71
2023/06/29 05:42:32;;;;;;;3.25;2.10;;;;;;;;;;4989077;28;20057;-71
2023/06/29 05:44:58;;;;;;;2.22;1.90;;;;;;;;;;5022235;28;20042;-71
2023/06/29 05:47:24;;;;;;;2.17;1.83;;;;;;;;;;5035299;28;20053;-71
2023/06/29 05:49:49;;;;;;;1.88;1.67;;;;;;;;;;5006791;28;20064;-72
2023/06/29 05:52:15;;;;;;;1.75;1.58;;;;;;;;;;5026389;28;20136;-72
2023/06/29 05:54:40;;;;;;;1.70;1.60;;;;;;;;;;5026215;28;20049;-71
2023/06/29 05:57:06;;;;;;;4.22;1.77;;;;;;;;;;5029092;28;20052;-72
2023/06/29 05:59:31;;;;;;;5.40;1.80;;;;;;;;;;5022404;28;20164;-72
2023/06/29 06:01:57;;;;;;;2.50;1.60;;;;;;;;;;5021704;28;20045;-72
2023/06/29 06:04:22;;;;;;;4.97;2.13;;;;;;;;;;5020645;28;20149;-72
2023/06/29 06:06:48;;;;;;;2.47;1.70;;;;;;;;;;5028649;28;20076;-71
2023/06/29 06:09:13;;;;;;;2.67;1.60;;;;;;;;;;5021704;28;20052;-72
2023/06/29 06:11:39;;;;;;;2.17;1.77;;;;;;;;;;5022739;28;20044;-72
2023/06/29 06:14:04;;;;;;;2.63;1.88;;;;;;;;;;4995764;28;20059;-71
2023/06/29 06:16:30;;;;;;;2.05;1.88;;;;;;;;;;5022622;28;20457;-72
2023/06/29 06:18:55;;;;;;;5.50;1.70;;;;;;;;;;5033545;28;20426;-71
2023/06/29 06:21:20;;;;;;;3.80;1.75;;;;;;;;;;5031296;28;20045;-71
2023/06/29 06:23:46;;;;;;;1.73;1.63;;;;;;;;;;5030903;28;20045;-72
2023/06/29 06:26:12;;;;;;;1.95;1.58;;;;;;;;;;5027462;28;20092;-72
2023/06/29 06:28:37;;;;;;;2.13;1.70;;;;;;;;;;5034073;28;20145;-72
2023/06/29 06:31:03;;;;;;;2.35;1.98;;;;;;;;;;5031950;28;20124;-71
2023/06/29 06:33:32;;;;;;;2.08;1.70;;;;;;;;;;5029454;28;20429;-71
2023/06/29 06:35:59;;;;;;;2.95;1.88;;;;;;;;;;5032316;28;20042;-71
2023/06/29 06:38:24;;;;;;;2.10;1.65;;;;;;;;;;5028977;28;20099;-70
2023/06/29 06:40:51;;;;;;;3.00;2.00;;;;;;;;;;5026133;28;20045;-71
2023/06/29 06:43:17;;;;;;;2.05;1.85;;;;;;;;;;5034538;28;20060;-71
2023/06/29 06:45:43;;;;;;;1.85;1.73;;;;;;;;;;5028082;28;20049;-70
2023/06/29 06:48:09;;;;;;;2.58;1.63;;;;;;;;;;5030424;28;20132;-70
2023/06/29 06:50:34;;;;;;;1.70;1.60;;;;;;;;;;5028312;28;20041;-71
2023/06/29 06:53:00;;;;;;;1.77;1.45;;;;;;;;;;5028084;28;20131;-72
2023/06/29 06:55:26;;;;;;;1.70;1.58;;;;;;;;;;5026645;28;20050;-71
2023/06/29 06:57:51;;;;;;;3.40;1.52;;;;;;;;;;5028280;28;20499;-71
2023/06/29 07:00:17;;;;;;;2.13;1.60;;;;;;;;;;5031361;28;20056;-71
2023/06/29 07:02:43;;;;;;;3.67;1.80;;;;;;;;;;5029270;28;20500;-72
2023/06/29 07:05:08;;;;;;;4.00;1.80;;;;;;;;;;5029012;28;20103;-71
2023/06/29 07:07:34;;;;;;;2.55;1.60;;;;;;;;;;5024146;28;20045;-70
2023/06/29 07:10:00;;;;;;;3.63;1.60;;;;;;;;;;5023809;28;20067;-70
2023/06/29 07:12:25;;;;;;;2.13;1.70;;;;;;;;;;5023217;28;20422;-70
2023/06/29 07:14:51;;;;;;;4.65;1.83;;;;;;;;;;5030589;28;20408;-70
2023/06/29 07:17:17;;;;;;;1.90;1.70;;;;;;;;;;5024550;28;20072;-70
2023/06/29 07:19:43;;;;;;;3.47;1.73;;;;;;;;;;5039628;28;20045;-70
2023/06/29 07:22:08;;;;;;;2.90;1.52;;;;;;;;;;5022730;28;20053;-70
2023/06/29 07:24:34;;;;;;;3.55;1.80;;;;;;;;;;5023158;28;20045;-70
2023/06/29 07:27:00;;;;;;;2.17;1.42;;;;;;;;;;5022682;28;20635;-71
2023/06/29 07:29:26;;;;;;;1.73;1.60;;;;;;;;;;5021821;28;20054;-70
2023/06/29 07:31:52;;;;;;;3.97;1.60;;;;;;;;;;5025885;28;20048;-70
2023/06/29 07:34:22;;;;;;;1.98;1.40;;;;;;;;;;5023666;28;20042;-70
2023/06/29 07:36:48;;;;;;;3.00;1.63;;;;;;;;;;5021328;28;20041;-71
2023/06/29 07:39:13;;;;;;;1.90;1.70;;;;;;;;;;5022173;28;20749;-70
2023/06/29 07:41:39;;;;;;;2.30;1.50;;;;;;;;;;5020983;28;20049;-71
2023/06/29 07:44:04;;;;;;;2.38;1.50;;;;;;;;;;5019639;28;20136;-71
2023/06/29 07:46:31;;;;;;;3.22;1.70;;;;;;;;;;5028583;28;20048;-72
2023/06/29 07:48:58;;;;;;;1.75;1.63;;;;;;;;;;5025139;28;20052;-72
2023/06/29 07:51:24;;;;;;;4.93;1.60;;;;;;;;;;5027486;28;20053;-73
2023/06/29 07:53:52;;;;;;;3.97;1.50;;;;;;;;;;5020824;28;20054;-71
2023/06/29 07:56:18;;;;;;;2.75;1.52;;;;;;;;;;5020905;28;20041;-70
2023/06/29 07:58:44;;;;;;;2.45;1.65;;;;;;;;;;5019144;28;20045;-71
2023/06/29 08:01:10;;;;;;;2.95;1.42;;;;;;;;;;5027609;28;20155;-70
2023/06/29 08:03:35;;;;;;;1.50;1.40;;;;;;;;;;5024392;28;20077;-71
2023/06/29 08:06:01;;;;;;;1.77;1.67;;;;;;;;;;5025356;28;20050;-71
2023/06/29 08:08:29;;;;;;;6.38;1.40;;;;;;;;;;5027348;28;20143;-71
2023/06/29 08:10:55;;;;;;;2.50;1.70;;;;;;;;;;5032662;28;20045;-71
2023/06/29 08:13:21;;;;;;;1.48;1.30;;;;;;;;;;5031256;28;20068;-70
2023/06/29 08:15:46;;;;;;;2.67;1.15;;;;;;;;;;5030559;28;20045;-72
2023/06/29 08:18:12;;;;;;;3.47;1.60;;;;;;;;;;5028402;28;20072;-73
2023/06/29 08:20:38;;;;;;;3.30;1.63;;;;;;;;;;5030368;28;20052;-71
2023/06/29 08:23:04;;;;;;;3.08;1.50;;;;;;;;;;5025738;28;20069;-72
2023/06/29 08:25:29;;;;;;;1.95;1.63;;;;;;;;;;5026494;28;20087;-72
2023/06/29 08:27:55;;;;;;;2.70;1.33;;;;;;;;;;5019783;28;20042;-72
2023/06/29 08:30:21;;;;;;;1.98;1.50;;;;;;;;;;5029003;28;20053;-71
2023/06/29 08:32:48;;;;;;;2.60;1.20;;;;;;;;;;5026286;28;20091;-70
2023/06/29 08:35:14;;;;;;;3.08;1.50;;;;;;;;;;5028798;28;21067;-70
2023/06/29 08:37:40;;;;;;;1.70;1.52;;;;;;;;;;5024485;28;20069;-71
2023/06/29 08:40:06;;;;;;;1.85;1.40;;;;;;;;;;5032548;28;20084;-70
2023/06/29 08:42:32;;;;;;;3.20;1.63;;;;;;;;;;5030142;28;20068;-71
2023/06/29 08:44:57;;;;;;;2.10;1.65;;;;;;;;;;5030028;28;20033;-71
2023/06/29 08:47:24;;;;;;;3.28;1.35;;;;;;;;;;5026884;28;20339;-71
2023/06/29 08:49:56;;;;;;;3.13;1.58;;;;;;;;;;5026226;28;20565;-71
2023/06/29 08:52:25;;;;;;;1.92;1.10;;;;;;;;;;5019492;28;20053;-70
2023/06/29 08:54:52;;;;;;;2.33;1.60;;;;;;;;;;5025562;28;20132;-70
2023/06/29 08:57:18;;;;;;;1.60;1.38;;;;;;;;;;5028814;28;20110;-71
2023/06/29 08:59:44;;;;;;;1.30;1.20;;;;;;;;;;5031025;28;20045;-70
2023/06/29 09:02:10;;;;;;;2.00;1.00;;;;;;;;;;5027068;28;20100;-71
2023/06/29 09:04:36;;;;;;;1.27;1.17;;;;;;;;;;5028918;28;20049;-70
2023/06/29 09:07:03;;;;;;;1.63;1.33;;;;;;;;;;5021951;28;20471;-72
2023/06/29 09:09:29;;;;;;;3.92;1.25;;;;;;;;;;5024038;28;20049;-70
2023/06/29 09:11:55;;;;;;;1.77;1.20;;;;;;;;;;5033965;28;20049;-70
2023/06/29 09:14:22;;;;;;;1.65;1.23;;;;;;;;;;5034527;28;20103;-71
2023/06/29 09:16:52;;;;;;;1.65;1.10;;;;;;;;;;5023521;28;20083;-70
2023/06/29 09:19:18;;;;;;;2.67;1.17;;;;;;;;;;5032146;28;20415;-71
2023/06/29 09:21:47;;;;;;;1.38;1.13;;;;;;;;;;5018930;28;20046;-71
2023/06/29 09:24:17;;;;;;;1.45;1.35;;;;;;;;;;5017905;28;21032;-72
2023/06/29 09:26:43;;;;;;;1.45;1.10;;;;;;;;;;5023117;28;20037;-69
2023/06/29 09:29:08;;;;;;;2.05;1.30;;;;;;;;;;5022136;28;20106;-71
2023/06/29 09:31:36;;;;;;;1.50;1.17;;;;;;;;;;5026009;28;20072;-70
2023/06/29 09:34:21;;;;;;;1.05;0.95;;;;;;;;;;5018573;28;20513;-69
2023/06/29 09:36:48;;;;;;;1.73;1.30;;;;;;;;;;5017884;28;20061;-70
2023/06/29 09:39:15;;;;;;;1.73;1.23;;;;;;;;;;5025504;28;20519;-69
2023/06/29 09:41:46;;;;;;;1.95;1.10;;;;;;;;;;5022969;28;20049;-71
2023/06/29 09:44:16;;;;;;;1.48;1.10;;;;;;;;;;5022890;28;20418;-72
2023/06/29 09:46:42;;;;;;;3.63;1.13;;;;;;;;;;5025085;28;20048;-72
2023/06/29 09:49:08;;;;;;;1.20;1.10;;;;;;;;;;5035500;28;20053;-70
2023/06/29 09:51:34;;;;;;;1.60;1.10;;;;;;;;;;5023625;28;20061;-72
2023/06/29 09:54:02;;;;;;;1.25;1.15;;;;;;;;;;5026287;28;20056;-70
2023/06/29 09:56:34;;;;;;;3.47;1.45;;;;;;;;;;5025158;28;20147;-69
2023/06/29 09:59:01;;;;;;;2.08;1.30;;;;;;;;;;5030697;28;20041;-70
2023/06/29 10:01:28;;;;;;;2.92;1.13;;;;;;;;;;5034920;28;20050;-70
2023/06/29 10:03:54;;;;;;;1.63;1.15;;;;;;;;;;5032257;28;20040;-71
2023/06/29 10:06:30;;;;;;;1.67;1.23;;;;;;;;;;5031413;28;20061;-70
2023/06/29 10:08:58;;;;;;;2.22;1.20;;;;;;;;;;5027919;28;20099;-69
2023/06/29 10:11:28;;;;;;;1.38;1.27;;;;;;;;;;5034439;28;20064;-70
2023/06/29 10:13:58;;;;;;;2.80;1.33;;;;;;;;;;5033530;28;20137;-70
2023/06/29 10:16:26;;;;;;;1.90;1.30;;;;;;;;;;5033302;28;20104;-70
2023/06/29 10:19:01;;;;;;;1.92;1.20;;;;;;;;;;5021226;28;20049;-70
2023/06/29 10:21:27;;;;;;;3.03;1.50;;;;;;;;;;5028298;28;20049;-71
2023/06/29 10:23:53;;;;;;;2.13;1.15;;;;;;;;;;5030253;28;20067;-71
2023/06/29 10:26:20;;;;;;;2.00;1.10;;;;;;;;;;5036228;28;20040;-70
2023/06/29 10:28:45;;;;;;;1.50;1.10;;;;;;;;;;5032068;28;20053;-71
2023/06/29 10:31:18;;;;;;;1.20;1.10;;;;;;;;;;5028741;28;20061;-69
2023/06/29 10:33:50;;;;;;;1.90;1.13;;;;;;;;;;5022209;28;20061;-70
2023/06/29 10:36:17;;;;;;;1.38;1.23;;;;;;;;;;5022939;28;20053;-70
2023/06/29 10:38:42;;;;;;;1.45;1.08;;;;;;;;;;5025629;28;20045;-71
2023/06/29 10:41:27;;;;;;;1.90;1.20;;;;;;;;;;5025802;28;20054;-71
2023/06/29 10:44:00;;;;;;;2.30;1.35;;;;;;;;;;5020581;28;20144;-71
2023/06/29 10:46:43;;;;;;;1.60;1.20;;;;;;;;;;5026930;28;20096;-71
2023/06/29 10:49:26;;;;;;;1.83;1.17;;;;;;;;;;5028223;28;20565;-72
2023/06/29 10:52:00;;;;;;;4.18;1.20;;;;;;;;;;5026021;28;20124;-72
2023/06/29 10:54:26;;;;;;;1.95;1.20;;;;;;;;;;5029008;28;20134;-70
2023/06/29 10:57:05;;;;;;;10.13;1.58;;;;;;;;;;5027262;28;20080;-72
2023/06/29 10:59:33;;;;;;;3.55;1.33;;;;;;;;;;5032917;28;20546;-73
2023/06/29 11:01:59;;;;;;;1.40;1.30;;;;;;;;;;5028985;28;20037;-70
2023/06/29 11:04:24;;;;;;;2.15;1.40;;;;;;;;;;5029725;28;20049;-71
2023/06/29 11:06:50;;;;;;;1.05;0.82;;;;;;;;;;5032544;28;20062;-71
2023/06/29 11:09:16;;;;;;;2.38;1.30;;;;;;;;;;5033768;28;20049;-72
2023/06/29 11:11:44;;;;;;;2.17;1.45;;;;;;;;;;5032084;28;20467;-70
2023/06/29 11:14:16;;;;;;;1.30;1.10;;;;;;;;;;5029575;28;20037;-68
2023/06/29 11:16:42;;;;;;;1.83;1.00;;;;;;;;;;5033246;28;20055;-73
2023/06/29 11:19:08;;;;;;;2.95;1.35;;;;;;;;;;5028327;28;20041;-70
2023/06/29 11:21:33;;;;;;;6.18;1.08;;;;;;;;;;5030385;28;21081;-72
2023/06/29 11:23:59;;;;;;;3.53;1.33;;;;;;;;;;5024343;28;20042;-71
2023/06/29 11:26:26;;;;;;;1.25;1.10;;;;;;;;;;5032176;28;20057;-72
2023/06/29 11:28:52;;;;;;;1.30;1.15;;;;;;;;;;5026570;28;20053;-71
2023/06/29 11:31:19;;;;;;;1.30;0.88;;;;;;;;;;5029517;28;21206;-70
2023/06/29 11:33:51;;;;;;;1.25;1.15;;;;;;;;;;5027628;28;20095;-70
2023/06/29 11:36:29;;;;;;;1.10;1.00;;;;;;;;;;5027504;28;20052;-71
2023/06/29 11:39:08;;;;;;;1.83;1.20;;;;;;;;;;5030196;28;20055;-70
2023/06/29 11:41:37;;;;;;;1.10;1.00;;;;;;;;;;5027782;28;20106;-71
2023/06/29 11:44:03;;;;;;;1.38;0.90;;;;;;;;;;5027613;28;20060;-70
2023/06/29 11:46:35;;;;;;;1.08;0.98;;;;;;;;;;5022700;28;20037;-70
2023/06/29 11:49:03;;;;;;;6.18;1.00;;;;;;;;;;5021588;28;20079;-71
2023/06/29 11:51:33;;;;;;;2.88;1.02;;;;;;;;;;5021949;28;20045;-70
2023/06/29 11:53:59;;;;;;;3.92;0.98;;;;;;;;;;5028785;28;20144;-71
2023/06/29 11:56:39;;;;;;;2.28;1.08;;;;;;;;;;5029734;28;20048;-70
2023/06/29 11:59:16;;;;;;;1.45;0.80;;;;;;;;;;5024762;28;20497;-69
2023/06/29 12:01:46;;;;;;;1.77;0.90;;;;;;;;;;5026674;28;20045;-70
2023/06/29 12:04:15;;;;;;;2.65;0.90;;;;;;;;;;5028928;28;21023;-70
2023/06/29 12:06:51;;;;;;;1.38;0.90;;;;;;;;;;5025970;28;20041;-71
2023/06/29 12:09:17;;;;;;;1.20;1.10;;;;;;;;;;5018941;28;20064;-71
2023/06/29 12:11:42;;;;;;;1.98;1.02;;;;;;;;;;5024007;28;20041;-73
2023/06/29 12:14:09;;;;;;;2.03;0.80;;;;;;;;;;5022555;28;20081;-72
2023/06/29 12:16:40;;;;;;;1.40;1.15;;;;;;;;;;5022949;28;20053;-72
2023/06/29 12:19:10;;;;;;;2.22;0.90;;;;;;;;;;5026474;28;20386;-72
2023/06/29 12:21:36;;;;;;;1.02;0.80;;;;;;;;;;5028292;28;20057;-73
2023/06/29 12:24:05;;;;;;;1.75;1.00;;;;;;;;;;5025526;28;20645;-73
2023/06/29 12:26:31;;;;;;;0.82;0.82;;;;;;;;;;5030446;28;20452;-72
2023/06/29 12:28:57;;;;;;;2.22;1.08;;;;;;;;;;5023114;28;20132;-72
2023/06/29 12:31:29;;;;;;;1.77;1.00;;;;;;;;;;5020034;28;20128;-72
2023/06/29 12:33:55;;;;;;;1.65;0.90;;;;;;;;;;5022691;28;20049;-72
2023/06/29 12:36:21;;;;;;;3.30;0.93;;;;;;;;;;5028852;28;20049;-72
2023/06/29 12:38:50;;;;;;;3.25;1.10;;;;;;;;;;5027111;28;20084;-73
2023/06/29 12:41:17;;;;;;;3.75;1.00;;;;;;;;;;5026757;28;20049;-72
2023/06/29 12:43:42;;;;;;;2.15;0.90;;;;;;;;;;5021053;28;20045;-73
2023/06/29 12:46:10;;;;;;;1.25;1.00;;;;;;;;;;5010781;28;20044;-74
2023/06/29 12:48:36;;;;;;;0.82;0.82;;;;;;;;;;5023808;28;20041;-73
2023/06/29 12:51:01;;;;;;;1.38;0.90;;;;;;;;;;5018438;28;20046;-73
2023/06/29 12:53:27;;;;;;;1.25;0.90;;;;;;;;;;5025029;28;20138;-73
2023/06/29 12:55:53;;;;;;;1.30;1.00;;;;;;;;;;5019086;28;20041;-73
2023/06/29 12:58:18;;;;;;;1.30;0.90;;;;;;;;;;5027126;28;20049;-72
2023/06/29 13:00:43;;;;;;;1.27;1.02;;;;;;;;;;5028398;28;20037;-73
2023/06/29 13:03:14;;;;;;;1.05;0.95;;;;;;;;;;5026136;28;20053;-71
2023/06/29 13:05:39;;;;;;;1.37;1.00;;;;;;;;;;5019359;28;20114;-71
2023/06/29 13:08:05;;;;;;;1.60;1.23;;;;;;;;;;5027510;28;20964;-72
2023/06/29 13:10:33;;;;;;;1.85;1.17;;;;;;;;;;5027349;28;20140;-73
2023/06/29 13:13:00;;;;;;;1.00;0.90;;;;;;;;;;5023552;28;20049;-72
2023/06/29 13:15:25;;;;;;;1.58;1.10;;;;;;;;;;5027031;28;20144;-72
2023/06/29 13:17:51;;;;;;;0.90;0.90;;;;;;;;;;5031761;28;20128;-72
2023/06/29 13:20:17;;;;;;;1.20;1.05;;;;;;;;;;5026549;28;20077;-72
2023/06/29 13:22:43;;;;;;;1.70;1.00;;;;;;;;;;5025500;28;20203;-71
2023/06/29 13:25:08;;;;;;;0.95;0.90;;;;;;;;;;5030298;28;20153;-71
2023/06/29 13:27:34;;;;;;;3.45;1.17;;;;;;;;;;5022983;28;20080;-70
2023/06/29 13:29:59;;;;;;;1.40;1.00;;;;;;;;;;5025645;28;20136;-74
2023/06/29 13:32:25;;;;;;;1.88;1.10;;;;;;;;;;5024387;28;20929;-73
2023/06/29 13:34:51;;;;;;;2.08;1.02;;;;;;;;;;5021664;28;20060;-71
2023/06/29 13:37:17;;;;;;;1.40;1.13;;;;;;;;;;5026960;28;20049;-71
2023/06/29 13:39:43;;;;;;;1.50;1.20;;;;;;;;;;5026496;28;20045;-72
2023/06/29 13:42:15;;;;;;;2.72;1.20;;;;;;;;;;5022916;28;20044;-73
2023/06/29 13:44:41;;;;;;;1.10;1.02;;;;;;;;;;5028731;28;20037;-73
2023/06/29 13:47:06;;;;;;;1.25;1.15;;;;;;;;;;5028733;28;20055;-72
2023/06/29 13:49:32;;;;;;;3.38;1.13;;;;;;;;;;5026881;28;20052;-72
2023/06/29 13:51:57;;;;;;;1.40;1.10;;;;;;;;;;5028909;28;20063;-70
2023/06/29 13:54:23;;;;;;;1.50;1.00;;;;;;;;;;5029440;28;20046;-73
2023/06/29 13:56:49;;;;;;;2.30;1.00;;;;;;;;;;5030628;28;20041;-69
2023/06/29 13:59:15;;;;;;;1.00;1.00;;;;;;;;;;5027127;28;20068;-70
2023/06/29 14:01:41;;;;;;;1.80;1.15;;;;;;;;;;5021795;28;20152;-71
2023/06/29 14:04:09;;;;;;;1.02;1.00;;;;;;;;;;4996066;28;20439;-70
2023/06/29 14:06:36;;;;;;;1.50;1.40;;;;;;;;;;5024755;28;20395;-71
2023/06/29 14:09:03;;;;;;;3.05;1.20;;;;;;;;;;5020056;28;20720;-70
2023/06/29 14:11:29;;;;;;;2.95;1.13;;;;;;;;;;5024978;28;20103;-68
2023/06/29 14:13:58;;;;;;;1.60;1.25;;;;;;;;;;5036056;28;20132;-70
2023/06/29 14:16:24;;;;;;;2.78;1.00;;;;;;;;;;5031456;28;20783;-72
2023/06/29 14:18:50;;;;;;;1.20;0.95;;;;;;;;;;5026561;28;20528;-71
2023/06/29 14:21:15;;;;;;;1.20;1.10;;;;;;;;;;5029397;28;20514;-74
2023/06/29 14:23:41;;;;;;;2.25;1.38;;;;;;;;;;5027553;28;20057;-71
2023/06/29 14:26:06;;;;;;;1.40;1.10;;;;;;;;;;5021162;28;20057;-72
2023/06/29 14:28:34;;;;;;;1.23;1.13;;;;;;;;;;5026784;28;20085;-69
2023/06/29 14:30:59;;;;;;;1.10;1.00;;;;;;;;;;5031995;28;20049;-69
2023/06/29 14:33:25;;;;;;;1.85;1.10;;;;;;;;;;5026910;28;20057;-71
2023/06/29 14:35:51;;;;;;;1.02;0.95;;;;;;;;;;5021086;28;20132;-71
2023/06/29 14:38:16;;;;;;;1.70;1.10;;;;;;;;;;5028258;28;20057;-71
2023/06/29 14:40:42;;;;;;;2.28;1.20;;;;;;;;;;5022825;28;20046;-70